sensor_id;sensor_type;location;lat;lon;timestamp;P1;durP1;ratioP1;P2;durP2;ratioP2
44480;SDS011;30184;42.018;23.670;2024-02-15T00:01:50;30.65;;;11.50;;
44480;SDS011;30184;42.018;23.670;2024-02-15T00:04:19;39.78;;;14.13;;
44480;SDS011;30184;42.018;23.670;2024-02-15T00:06:50;48.42;;;15.77;;
44480;SDS011;30184;42.018;23.670;2024-02-15T00:09:20;28.48;;;14.35;;
44480;SDS011;30184;42.018;23.670;2024-02-15T00:11:49;35.90;;;15.40;;
44480;SDS011;30184;42.018;23.670;2024-02-15T00:14:19;39.65;;;15.20;;
44480;SDS011;30184;42.018;23.670;2024-02-15T00:16:49;38.28;;;14.55;;
44480;SDS011;30184;42.018;23.670;2024-02-15T00:19:18;33.42;;;15.50;;
44480;SDS011;30184;42.018;23.670;2024-02-15T00:21:51;34.03;;;14.63;;
44480;SDS011;30184;42.018;23.670;2024-02-15T00:24:22;36.65;;;12.48;;
44480;SDS011;30184;42.018;23.670;2024-02-15T00:26:51;25.75;;;12.35;;
44480;SDS011;30184;42.018;23.670;2024-02-15T00:29:21;31.65;;;11.85;;
44480;SDS011;30184;42.018;23.670;2024-02-15T00:31:50;21.33;;;10.07;;
44480;SDS011;30184;42.018;23.670;2024-02-15T00:34:19;21.55;;;10.25;;
44480;SDS011;30184;42.018;23.670;2024-02-15T00:36:51;40.63;;;13.10;;
44480;SDS011;30184;42.018;23.670;2024-02-15T00:39:21;23.58;;;11.73;;
44480;SDS011;30184;42.018;23.670;2024-02-15T00:41:51;21.85;;;9.80;;
44480;SDS011;30184;42.018;23.670;2024-02-15T00:44:20;17.25;;;8.85;;
44480;SDS011;30184;42.018;23.670;2024-02-15T00:46:49;30.13;;;9.82;;
44480;SDS011;30184;42.018;23.670;2024-02-15T00:49:19;23.90;;;8.70;;
44480;SDS011;30184;42.018;23.670;2024-02-15T00:51:48;18.42;;;6.32;;
44480;SDS011;30184;42.018;23.670;2024-02-15T00:54:19;17.30;;;6.20;;
44480;SDS011;30184;42.018;23.670;2024-02-15T00:56:50;9.00;;;5.10;;
44480;SDS011;30184;42.018;23.670;2024-02-15T00:59:20;21.38;;;7.65;;
44480;SDS011;30184;42.018;23.670;2024-02-15T01:01:49;9.18;;;4.50;;
44480;SDS011;30184;42.018;23.670;2024-02-15T01:04:20;6.63;;;3.00;;
44480;SDS011;30184;42.018;23.670;2024-02-15T01:06:50;8.23;;;3.90;;
44480;SDS011;30184;42.018;23.670;2024-02-15T01:09:22;18.58;;;3.90;;
44480;SDS011;30184;42.018;23.670;2024-02-15T01:11:51;6.43;;;2.70;;
44480;SDS011;30184;42.018;23.670;2024-02-15T01:14:21;4.97;;;2.08;;
44480;SDS011;30184;42.018;23.670;2024-02-15T01:16:51;6.07;;;3.20;;
44480;SDS011;30184;42.018;23.670;2024-02-15T01:19:21;5.15;;;2.53;;
44480;SDS011;30184;42.018;23.670;2024-02-15T01:21:51;15.80;;;4.25;;
44480;SDS011;30184;42.018;23.670;2024-02-15T01:24:22;6.45;;;3.50;;
44480;SDS011;30184;42.018;23.670;2024-02-15T01:26:52;12.30;;;4.07;;
44480;SDS011;30184;42.018;23.670;2024-02-15T01:29:22;19.17;;;6.95;;
44480;SDS011;30184;42.018;23.670;2024-02-15T01:31:53;13.27;;;4.35;;
44480;SDS011;30184;42.018;23.670;2024-02-15T01:34:23;8.55;;;4.57;;
44480;SDS011;30184;42.018;23.670;2024-02-15T01:36:53;24.13;;;7.90;;
44480;SDS011;30184;42.018;23.670;2024-02-15T01:39:24;18.45;;;6.35;;
44480;SDS011;30184;42.018;23.670;2024-02-15T01:41:53;11.00;;;4.30;;
44480;SDS011;30184;42.018;23.670;2024-02-15T01:44:24;12.45;;;4.35;;
44480;SDS011;30184;42.018;23.670;2024-02-15T01:46:53;28.05;;;8.48;;
44480;SDS011;30184;42.018;23.670;2024-02-15T01:49:23;42.13;;;11.02;;
44480;SDS011;30184;42.018;23.670;2024-02-15T01:51:54;20.63;;;4.82;;
44480;SDS011;30184;42.018;23.670;2024-02-15T01:54:27;8.95;;;3.75;;
44480;SDS011;30184;42.018;23.670;2024-02-15T01:56:57;18.23;;;3.40;;
44480;SDS011;30184;42.018;23.670;2024-02-15T01:59:26;14.35;;;4.72;;
44480;SDS011;30184;42.018;23.670;2024-02-15T02:01:56;16.10;;;6.88;;
44480;SDS011;30184;42.018;23.670;2024-02-15T02:04:26;13.05;;;5.97;;
44480;SDS011;30184;42.018;23.670;2024-02-15T02:06:55;10.60;;;5.07;;
44480;SDS011;30184;42.018;23.670;2024-02-15T02:09:28;16.95;;;7.00;;
44480;SDS011;30184;42.018;23.670;2024-02-15T02:11:57;6.90;;;4.13;;
44480;SDS011;30184;42.018;23.670;2024-02-15T02:14:27;11.65;;;5.95;;
44480;SDS011;30184;42.018;23.670;2024-02-15T02:17:01;11.38;;;5.15;;
44480;SDS011;30184;42.018;23.670;2024-02-15T02:19:41;13.38;;;6.97;;
44480;SDS011;30184;42.018;23.670;2024-02-15T02:22:11;12.98;;;7.57;;
44480;SDS011;30184;42.018;23.670;2024-02-15T02:27:31;16.65;;;8.07;;
44480;SDS011;30184;42.018;23.670;2024-02-15T02:30:03;15.13;;;7.38;;
44480;SDS011;30184;42.018;23.670;2024-02-15T02:32:34;12.05;;;6.47;;
44480;SDS011;30184;42.018;23.670;2024-02-15T02:35:04;22.70;;;6.82;;
44480;SDS011;30184;42.018;23.670;2024-02-15T02:37:34;9.13;;;6.55;;
44480;SDS011;30184;42.018;23.670;2024-02-15T02:40:07;14.13;;;6.45;;
44480;SDS011;30184;42.018;23.670;2024-02-15T02:42:37;17.08;;;6.55;;
44480;SDS011;30184;42.018;23.670;2024-02-15T02:45:16;13.98;;;6.72;;
44480;SDS011;30184;42.018;23.670;2024-02-15T02:47:47;15.75;;;7.35;;
44480;SDS011;30184;42.018;23.670;2024-02-15T02:50:18;15.43;;;5.85;;
44480;SDS011;30184;42.018;23.670;2024-02-15T02:52:48;8.90;;;5.50;;
44480;SDS011;30184;42.018;23.670;2024-02-15T02:55:19;17.50;;;6.90;;
44480;SDS011;30184;42.018;23.670;2024-02-15T02:57:49;18.05;;;7.03;;
44480;SDS011;30184;42.018;23.670;2024-02-15T03:00:18;19.42;;;7.53;;
44480;SDS011;30184;42.018;23.670;2024-02-15T03:02:49;15.57;;;6.80;;
44480;SDS011;30184;42.018;23.670;2024-02-15T03:05:18;10.35;;;5.53;;
44480;SDS011;30184;42.018;23.670;2024-02-15T03:07:48;8.55;;;4.82;;
44480;SDS011;30184;42.018;23.670;2024-02-15T03:10:21;8.90;;;4.78;;
44480;SDS011;30184;42.018;23.670;2024-02-15T03:12:52;19.73;;;6.97;;
44480;SDS011;30184;42.018;23.670;2024-02-15T03:15:21;12.43;;;6.22;;
44480;SDS011;30184;42.018;23.670;2024-02-15T03:17:50;8.77;;;4.38;;
44480;SDS011;30184;42.018;23.670;2024-02-15T03:20:19;7.57;;;5.20;;
44480;SDS011;30184;42.018;23.670;2024-02-15T03:22:52;18.70;;;6.53;;
44480;SDS011;30184;42.018;23.670;2024-02-15T03:25:24;17.42;;;6.15;;
44480;SDS011;30184;42.018;23.670;2024-02-15T03:27:54;10.57;;;4.75;;
44480;SDS011;30184;42.018;23.670;2024-02-15T03:30:25;8.07;;;4.50;;
44480;SDS011;30184;42.018;23.670;2024-02-15T03:32:57;12.32;;;6.05;;
44480;SDS011;30184;42.018;23.670;2024-02-15T03:35:27;15.23;;;7.53;;
44480;SDS011;30184;42.018;23.670;2024-02-15T03:37:59;18.52;;;8.18;;
44480;SDS011;30184;42.018;23.670;2024-02-15T03:40:30;9.60;;;5.22;;
44480;SDS011;30184;42.018;23.670;2024-02-15T03:43:00;14.68;;;7.05;;
44480;SDS011;30184;42.018;23.670;2024-02-15T03:45:34;16.65;;;8.15;;
44480;SDS011;30184;42.018;23.670;2024-02-15T03:48:04;14.40;;;7.28;;
44480;SDS011;30184;42.018;23.670;2024-02-15T03:50:35;17.63;;;8.65;;
44480;SDS011;30184;42.018;23.670;2024-02-15T03:53:04;9.98;;;5.95;;
44480;SDS011;30184;42.018;23.670;2024-02-15T03:55:36;10.90;;;6.22;;
44480;SDS011;30184;42.018;23.670;2024-02-15T03:58:06;12.07;;;7.38;;
44480;SDS011;30184;42.018;23.670;2024-02-15T04:00:37;18.13;;;8.15;;
44480;SDS011;30184;42.018;23.670;2024-02-15T04:03:07;14.52;;;7.50;;
44480;SDS011;30184;42.018;23.670;2024-02-15T04:05:37;21.25;;;8.18;;
44480;SDS011;30184;42.018;23.670;2024-02-15T04:08:07;14.40;;;7.05;;
44480;SDS011;30184;42.018;23.670;2024-02-15T04:10:39;18.48;;;7.93;;
44480;SDS011;30184;42.018;23.670;2024-02-15T04:13:09;14.63;;;6.97;;
44480;SDS011;30184;42.018;23.670;2024-02-15T04:15:38;11.63;;;6.28;;
44480;SDS011;30184;42.018;23.670;2024-02-15T04:18:09;16.70;;;7.53;;
44480;SDS011;30184;42.018;23.670;2024-02-15T04:20:40;15.27;;;7.93;;
44480;SDS011;30184;42.018;23.670;2024-02-15T04:23:12;13.95;;;6.03;;
44480;SDS011;30184;42.018;23.670;2024-02-15T04:25:44;13.00;;;6.85;;
44480;SDS011;30184;42.018;23.670;2024-02-15T04:28:18;15.15;;;8.40;;
44480;SDS011;30184;42.018;23.670;2024-02-15T04:30:48;18.33;;;7.50;;
44480;SDS011;30184;42.018;23.670;2024-02-15T04:33:18;18.40;;;9.13;;
44480;SDS011;30184;42.018;23.670;2024-02-15T04:35:47;14.88;;;7.82;;
44480;SDS011;30184;42.018;23.670;2024-02-15T04:38:18;13.73;;;8.48;;
44480;SDS011;30184;42.018;23.670;2024-02-15T04:40:49;20.38;;;10.25;;
44480;SDS011;30184;42.018;23.670;2024-02-15T04:43:21;22.00;;;9.00;;
44480;SDS011;30184;42.018;23.670;2024-02-15T04:45:50;15.77;;;8.05;;
44480;SDS011;30184;42.018;23.670;2024-02-15T04:48:20;27.70;;;8.35;;
44480;SDS011;30184;42.018;23.670;2024-02-15T04:50:52;15.75;;;7.63;;
44480;SDS011;30184;42.018;23.670;2024-02-15T04:53:23;50.65;;;16.73;;
44480;SDS011;30184;42.018;23.670;2024-02-15T04:55:55;33.70;;;12.90;;
44480;SDS011;30184;42.018;23.670;2024-02-15T04:58:28;22.77;;;9.57;;
44480;SDS011;30184;42.018;23.670;2024-02-15T05:00:58;25.05;;;9.32;;
44480;SDS011;30184;42.018;23.670;2024-02-15T05:03:28;18.73;;;10.13;;
44480;SDS011;30184;42.018;23.670;2024-02-15T05:05:57;77.82;;;28.45;;
44480;SDS011;30184;42.018;23.670;2024-02-15T05:08:27;24.95;;;14.20;;
44480;SDS011;30184;42.018;23.670;2024-02-15T05:11:01;19.58;;;10.55;;
44480;SDS011;30184;42.018;23.670;2024-02-15T05:13:32;34.03;;;14.45;;
44480;SDS011;30184;42.018;23.670;2024-02-15T05:16:02;30.45;;;13.35;;
44480;SDS011;30184;42.018;23.670;2024-02-15T05:18:33;29.77;;;14.68;;
44480;SDS011;30184;42.018;23.670;2024-02-15T05:21:04;39.17;;;16.30;;
44480;SDS011;30184;42.018;23.670;2024-02-15T05:23:37;24.05;;;11.30;;
44480;SDS011;30184;42.018;23.670;2024-02-15T05:26:10;26.10;;;10.90;;
44480;SDS011;30184;42.018;23.670;2024-02-15T05:28:42;21.10;;;10.63;;
44480;SDS011;30184;42.018;23.670;2024-02-15T05:31:12;21.83;;;8.90;;
44480;SDS011;30184;42.018;23.670;2024-02-15T05:33:44;18.83;;;10.70;;
44480;SDS011;30184;42.018;23.670;2024-02-15T05:36:15;35.05;;;16.83;;
44480;SDS011;30184;42.018;23.670;2024-02-15T05:38:49;26.98;;;12.52;;
44480;SDS011;30184;42.018;23.670;2024-02-15T05:41:20;30.92;;;12.40;;
44480;SDS011;30184;42.018;23.670;2024-02-15T05:43:50;24.55;;;12.77;;
44480;SDS011;30184;42.018;23.670;2024-02-15T05:46:21;28.98;;;14.13;;
44480;SDS011;30184;42.018;23.670;2024-02-15T05:48:50;31.08;;;17.23;;
44480;SDS011;30184;42.018;23.670;2024-02-15T05:51:21;27.23;;;13.70;;
44480;SDS011;30184;42.018;23.670;2024-02-15T05:53:51;45.53;;;23.27;;
44480;SDS011;30184;42.018;23.670;2024-02-15T05:56:27;32.35;;;18.40;;
44480;SDS011;30184;42.018;23.670;2024-02-15T05:58:57;40.85;;;18.92;;
44480;SDS011;30184;42.018;23.670;2024-02-15T06:01:26;73.75;;;31.27;;
44480;SDS011;30184;42.018;23.670;2024-02-15T06:03:56;49.33;;;23.30;;
44480;SDS011;30184;42.018;23.670;2024-02-15T06:06:26;21.10;;;12.98;;
44480;SDS011;30184;42.018;23.670;2024-02-15T06:08:56;290.48;;;123.03;;
44480;SDS011;30184;42.018;23.670;2024-02-15T06:11:29;45.60;;;23.45;;
44480;SDS011;30184;42.018;23.670;2024-02-15T06:13:59;28.48;;;15.55;;
44480;SDS011;30184;42.018;23.670;2024-02-15T06:16:28;44.08;;;19.80;;
44480;SDS011;30184;42.018;23.670;2024-02-15T06:18:58;40.97;;;19.35;;
44480;SDS011;30184;42.018;23.670;2024-02-15T06:21:28;33.78;;;17.05;;
44480;SDS011;30184;42.018;23.670;2024-02-15T06:23:58;64.85;;;29.17;;
44480;SDS011;30184;42.018;23.670;2024-02-15T06:26:29;76.57;;;27.48;;
44480;SDS011;30184;42.018;23.670;2024-02-15T06:28:59;37.45;;;18.42;;
44480;SDS011;30184;42.018;23.670;2024-02-15T06:31:46;66.15;;;25.50;;
44480;SDS011;30184;42.018;23.670;2024-02-15T06:34:32;61.15;;;27.08;;
44480;SDS011;30184;42.018;23.670;2024-02-15T06:40:26;58.60;;;27.00;;
44480;SDS011;30184;42.018;23.670;2024-02-15T06:42:58;72.97;;;29.35;;
44480;SDS011;30184;42.018;23.670;2024-02-15T06:45:27;75.70;;;35.58;;
44480;SDS011;30184;42.018;23.670;2024-02-15T06:47:59;57.45;;;22.23;;
44480;SDS011;30184;42.018;23.670;2024-02-15T06:50:29;56.17;;;22.35;;
44480;SDS011;30184;42.018;23.670;2024-02-15T06:52:58;46.53;;;21.92;;
44480;SDS011;30184;42.018;23.670;2024-02-15T06:55:28;43.33;;;17.52;;
44480;SDS011;30184;42.018;23.670;2024-02-15T06:57:59;41.28;;;21.30;;
44480;SDS011;30184;42.018;23.670;2024-02-15T07:00:29;52.33;;;23.38;;
44480;SDS011;30184;42.018;23.670;2024-02-15T07:02:59;46.80;;;23.15;;
44480;SDS011;30184;42.018;23.670;2024-02-15T07:05:28;57.25;;;27.23;;
44480;SDS011;30184;42.018;23.670;2024-02-15T07:07:58;63.30;;;24.98;;
44480;SDS011;30184;42.018;23.670;2024-02-15T07:10:28;72.03;;;31.30;;
44480;SDS011;30184;42.018;23.670;2024-02-15T07:13:00;122.97;;;50.05;;
44480;SDS011;30184;42.018;23.670;2024-02-15T07:15:31;84.50;;;40.67;;
44480;SDS011;30184;42.018;23.670;2024-02-15T07:18:05;82.65;;;36.75;;
44480;SDS011;30184;42.018;23.670;2024-02-15T07:20:34;90.15;;;37.60;;
44480;SDS011;30184;42.018;23.670;2024-02-15T07:23:05;59.83;;;29.95;;
44480;SDS011;30184;42.018;23.670;2024-02-15T07:25:34;63.10;;;29.27;;
44480;SDS011;30184;42.018;23.670;2024-02-15T07:28:08;48.88;;;21.05;;
44480;SDS011;30184;42.018;23.670;2024-02-15T07:30:38;47.83;;;21.45;;
44480;SDS011;30184;42.018;23.670;2024-02-15T07:33:08;58.85;;;27.27;;
44480;SDS011;30184;42.018;23.670;2024-02-15T07:35:39;70.38;;;28.52;;
44480;SDS011;30184;42.018;23.670;2024-02-15T07:38:11;44.45;;;21.77;;
44480;SDS011;30184;42.018;23.670;2024-02-15T07:40:40;38.10;;;16.45;;
44480;SDS011;30184;42.018;23.670;2024-02-15T07:43:13;33.92;;;15.40;;
44480;SDS011;30184;42.018;23.670;2024-02-15T07:45:42;30.13;;;13.68;;
44480;SDS011;30184;42.018;23.670;2024-02-15T07:48:12;35.50;;;15.98;;
44480;SDS011;30184;42.018;23.670;2024-02-15T07:50:42;74.50;;;26.90;;
44480;SDS011;30184;42.018;23.670;2024-02-15T07:53:12;54.88;;;25.73;;
44480;SDS011;30184;42.018;23.670;2024-02-15T07:55:42;41.58;;;21.13;;
44480;SDS011;30184;42.018;23.670;2024-02-15T07:58:13;44.67;;;21.77;;
44480;SDS011;30184;42.018;23.670;2024-02-15T08:00:46;45.05;;;22.20;;
44480;SDS011;30184;42.018;23.670;2024-02-15T08:03:15;49.35;;;21.08;;
44480;SDS011;30184;42.018;23.670;2024-02-15T08:05:45;67.90;;;25.33;;
44480;SDS011;30184;42.018;23.670;2024-02-15T08:08:15;42.50;;;20.45;;
44480;SDS011;30184;42.018;23.670;2024-02-15T08:10:44;60.85;;;24.55;;
44480;SDS011;30184;42.018;23.670;2024-02-15T08:13:17;54.33;;;24.10;;
44480;SDS011;30184;42.018;23.670;2024-02-15T08:15:50;48.40;;;22.55;;
44480;SDS011;30184;42.018;23.670;2024-02-15T08:18:20;47.42;;;22.40;;
44480;SDS011;30184;42.018;23.670;2024-02-15T08:20:50;73.20;;;27.88;;
44480;SDS011;30184;42.018;23.670;2024-02-15T08:23:19;17.92;;;8.18;;
44480;SDS011;30184;42.018;23.670;2024-02-15T08:25:49;8.68;;;4.22;;
44480;SDS011;30184;42.018;23.670;2024-02-15T08:28:21;8.15;;;4.30;;
44480;SDS011;30184;42.018;23.670;2024-02-15T08:30:51;5.45;;;2.63;;
44480;SDS011;30184;42.018;23.670;2024-02-15T08:33:21;8.23;;;3.47;;
44480;SDS011;30184;42.018;23.670;2024-02-15T08:35:50;4.22;;;2.40;;
44480;SDS011;30184;42.018;23.670;2024-02-15T08:38:23;6.70;;;3.53;;
44480;SDS011;30184;42.018;23.670;2024-02-15T08:40:52;12.05;;;5.63;;
44480;SDS011;30184;42.018;23.670;2024-02-15T08:43:23;13.40;;;6.40;;
44480;SDS011;30184;42.018;23.670;2024-02-15T08:45:53;13.50;;;4.15;;
44480;SDS011;30184;42.018;23.670;2024-02-15T08:48:23;13.48;;;5.78;;
44480;SDS011;30184;42.018;23.670;2024-02-15T08:50:52;10.93;;;4.30;;
44480;SDS011;30184;42.018;23.670;2024-02-15T08:53:21;32.05;;;8.23;;
44480;SDS011;30184;42.018;23.670;2024-02-15T08:55:52;9.90;;;4.22;;
44480;SDS011;30184;42.018;23.670;2024-02-15T08:58:23;2.88;;;1.65;;
44480;SDS011;30184;42.018;23.670;2024-02-15T09:00:52;10.65;;;3.45;;
44480;SDS011;30184;42.018;23.670;2024-02-15T09:03:22;13.93;;;5.55;;
44480;SDS011;30184;42.018;23.670;2024-02-15T09:05:51;11.27;;;4.78;;
44480;SDS011;30184;42.018;23.670;2024-02-15T09:08:21;19.20;;;6.20;;
44480;SDS011;30184;42.018;23.670;2024-02-15T09:10:51;4.03;;;2.08;;
44480;SDS011;30184;42.018;23.670;2024-02-15T09:13:23;14.68;;;4.32;;
44480;SDS011;30184;42.018;23.670;2024-02-15T09:15:55;21.98;;;8.40;;
44480;SDS011;30184;42.018;23.670;2024-02-15T09:18:25;23.58;;;5.40;;
44480;SDS011;30184;42.018;23.670;2024-02-15T09:20:54;13.48;;;4.97;;
44480;SDS011;30184;42.018;23.670;2024-02-15T09:23:24;17.63;;;6.43;;
44480;SDS011;30184;42.018;23.670;2024-02-15T09:25:54;6.38;;;2.67;;
44480;SDS011;30184;42.018;23.670;2024-02-15T09:28:25;12.98;;;4.45;;
44480;SDS011;30184;42.018;23.670;2024-02-15T09:30:54;9.80;;;3.95;;
44480;SDS011;30184;42.018;23.670;2024-02-15T09:33:27;13.57;;;4.93;;
44480;SDS011;30184;42.018;23.670;2024-02-15T09:35:56;10.60;;;3.42;;
44480;SDS011;30184;42.018;23.670;2024-02-15T09:38:26;6.05;;;2.38;;
44480;SDS011;30184;42.018;23.670;2024-02-15T09:40:55;6.43;;;3.17;;
44480;SDS011;30184;42.018;23.670;2024-02-15T09:43:27;4.10;;;2.53;;
44480;SDS011;30184;42.018;23.670;2024-02-15T09:45:57;7.55;;;2.78;;
44480;SDS011;30184;42.018;23.670;2024-02-15T09:48:26;8.10;;;3.15;;
44480;SDS011;30184;42.018;23.670;2024-02-15T09:50:58;4.40;;;2.35;;
44480;SDS011;30184;42.018;23.670;2024-02-15T09:53:30;13.15;;;5.35;;
44480;SDS011;30184;42.018;23.670;2024-02-15T09:56:00;5.13;;;2.33;;
44480;SDS011;30184;42.018;23.670;2024-02-15T09:58:33;8.65;;;3.92;;
44480;SDS011;30184;42.018;23.670;2024-02-15T10:01:03;4.40;;;2.83;;
44480;SDS011;30184;42.018;23.670;2024-02-15T10:03:37;13.10;;;4.00;;
44480;SDS011;30184;42.018;23.670;2024-02-15T10:06:08;10.60;;;4.60;;
44480;SDS011;30184;42.018;23.670;2024-02-15T10:08:37;15.13;;;4.85;;
44480;SDS011;30184;42.018;23.670;2024-02-15T10:11:07;6.15;;;3.13;;
44480;SDS011;30184;42.018;23.670;2024-02-15T10:13:39;3.38;;;2.03;;
44480;SDS011;30184;42.018;23.670;2024-02-15T10:16:14;5.47;;;2.65;;
44480;SDS011;30184;42.018;23.670;2024-02-15T10:18:44;4.38;;;2.17;;
44480;SDS011;30184;42.018;23.670;2024-02-15T10:21:24;4.03;;;2.05;;
44480;SDS011;30184;42.018;23.670;2024-02-15T10:24:04;11.35;;;4.15;;
44480;SDS011;30184;42.018;23.670;2024-02-15T10:26:34;11.77;;;4.68;;
44480;SDS011;30184;42.018;23.670;2024-02-15T10:29:06;9.65;;;4.38;;
44480;SDS011;30184;42.018;23.670;2024-02-15T10:31:39;9.05;;;2.70;;
44480;SDS011;30184;42.018;23.670;2024-02-15T10:34:09;9.63;;;4.25;;
44480;SDS011;30184;42.018;23.670;2024-02-15T10:36:43;15.88;;;4.82;;
44480;SDS011;30184;42.018;23.670;2024-02-15T10:39:13;14.00;;;6.15;;
44480;SDS011;30184;42.018;23.670;2024-02-15T10:41:47;10.80;;;3.80;;
44480;SDS011;30184;42.018;23.670;2024-02-15T10:44:19;13.40;;;5.32;;
44480;SDS011;30184;42.018;23.670;2024-02-15T10:46:51;4.47;;;2.08;;
44480;SDS011;30184;42.018;23.670;2024-02-15T10:49:22;6.55;;;2.40;;
44480;SDS011;30184;42.018;23.670;2024-02-15T10:51:54;5.13;;;2.67;;
44480;SDS011;30184;42.018;23.670;2024-02-15T10:54:30;4.03;;;1.85;;
44480;SDS011;30184;42.018;23.670;2024-02-15T10:57:09;3.97;;;2.10;;
44480;SDS011;30184;42.018;23.670;2024-02-15T10:59:43;4.70;;;2.58;;
44480;SDS011;30184;42.018;23.670;2024-02-15T11:02:26;3.95;;;1.67;;
44480;SDS011;30184;42.018;23.670;2024-02-15T11:04:59;4.18;;;1.70;;
44480;SDS011;30184;42.018;23.670;2024-02-15T11:07:32;10.57;;;3.83;;
44480;SDS011;30184;42.018;23.670;2024-02-15T11:10:02;7.07;;;3.42;;
44480;SDS011;30184;42.018;23.670;2024-02-15T11:12:35;3.55;;;1.92;;
44480;SDS011;30184;42.018;23.670;2024-02-15T11:15:08;5.22;;;2.25;;
44480;SDS011;30184;42.018;23.670;2024-02-15T11:17:45;4.97;;;2.53;;
44480;SDS011;30184;42.018;23.670;2024-02-15T11:20:45;3.95;;;1.70;;
44480;SDS011;30184;42.018;23.670;2024-02-15T11:23:23;7.20;;;3.25;;
44480;SDS011;30184;42.018;23.670;2024-02-15T11:26:03;4.68;;;1.60;;
44480;SDS011;30184;42.018;23.670;2024-02-15T11:28:38;11.10;;;4.10;;
44480;SDS011;30184;42.018;23.670;2024-02-15T11:31:10;4.35;;;2.22;;
44480;SDS011;30184;42.018;23.670;2024-02-15T11:37:05;5.13;;;2.45;;
44480;SDS011;30184;42.018;23.670;2024-02-15T11:39:42;5.30;;;2.97;;
44480;SDS011;30184;42.018;23.670;2024-02-15T11:42:26;7.88;;;2.97;;
44480;SDS011;30184;42.018;23.670;2024-02-15T11:45:02;7.70;;;3.05;;
44480;SDS011;30184;42.018;23.670;2024-02-15T11:47:36;6.50;;;2.73;;
44480;SDS011;30184;42.018;23.670;2024-02-15T11:50:07;4.22;;;1.50;;
44480;SDS011;30184;42.018;23.670;2024-02-15T11:52:39;5.22;;;2.20;;
44480;SDS011;30184;42.018;23.670;2024-02-15T11:55:10;3.38;;;1.38;;
44480;SDS011;30184;42.018;23.670;2024-02-15T11:57:40;5.07;;;2.20;;
44480;SDS011;30184;42.018;23.670;2024-02-15T12:00:21;9.88;;;2.75;;
44480;SDS011;30184;42.018;23.670;2024-02-15T12:03:10;1.25;;;0.82;;
44480;SDS011;30184;42.018;23.670;2024-02-15T12:06:00;1.98;;;0.98;;
44480;SDS011;30184;42.018;23.670;2024-02-15T12:08:47;1.98;;;1.70;;
44480;SDS011;30184;42.018;23.670;2024-02-15T12:11:34;1.33;;;0.93;;
44480;SDS011;30184;42.018;23.670;2024-02-15T12:14:23;2.25;;;1.30;;
44480;SDS011;30184;42.018;23.670;2024-02-15T12:17:11;2.33;;;1.20;;
44480;SDS011;30184;42.018;23.670;2024-02-15T12:20:01;6.32;;;3.08;;
44480;SDS011;30184;42.018;23.670;2024-02-15T12:22:34;4.03;;;2.33;;
44480;SDS011;30184;42.018;23.670;2024-02-15T12:25:12;5.30;;;2.15;;
44480;SDS011;30184;42.018;23.670;2024-02-15T12:27:44;5.18;;;2.83;;
44480;SDS011;30184;42.018;23.670;2024-02-15T12:30:14;4.75;;;2.17;;
44480;SDS011;30184;42.018;23.670;2024-02-15T12:32:47;4.63;;;1.90;;
44480;SDS011;30184;42.018;23.670;2024-02-15T12:35:19;13.13;;;4.63;;
44480;SDS011;30184;42.018;23.670;2024-02-15T12:38:00;11.38;;;5.28;;
44480;SDS011;30184;42.018;23.670;2024-02-15T12:40:33;7.03;;;3.83;;
44480;SDS011;30184;42.018;23.670;2024-02-15T12:43:04;4.85;;;2.55;;
44480;SDS011;30184;42.018;23.670;2024-02-15T12:45:36;6.65;;;4.07;;
44480;SDS011;30184;42.018;23.670;2024-02-15T12:48:06;6.25;;;2.38;;
44480;SDS011;30184;42.018;23.670;2024-02-15T12:50:38;5.30;;;2.47;;
44480;SDS011;30184;42.018;23.670;2024-02-15T12:53:07;5.35;;;2.65;;
44480;SDS011;30184;42.018;23.670;2024-02-15T12:55:38;13.52;;;4.40;;
44480;SDS011;30184;42.018;23.670;2024-02-15T12:58:12;4.70;;;2.53;;
44480;SDS011;30184;42.018;23.670;2024-02-15T13:00:42;8.63;;;2.83;;
44480;SDS011;30184;42.018;23.670;2024-02-15T13:03:12;4.80;;;3.20;;
44480;SDS011;30184;42.018;23.670;2024-02-15T13:05:45;12.50;;;6.00;;
44480;SDS011;30184;42.018;23.670;2024-02-15T13:08:15;7.20;;;3.58;;
44480;SDS011;30184;42.018;23.670;2024-02-15T13:10:47;5.40;;;2.88;;
44480;SDS011;30184;42.018;23.670;2024-02-15T13:13:18;6.20;;;3.38;;
44480;SDS011;30184;42.018;23.670;2024-02-15T13:15:49;5.55;;;2.72;;
44480;SDS011;30184;42.018;23.670;2024-02-15T13:18:19;3.78;;;2.33;;
44480;SDS011;30184;42.018;23.670;2024-02-15T13:20:51;4.15;;;2.05;;
44480;SDS011;30184;42.018;23.670;2024-02-15T13:23:20;9.98;;;2.08;;
44480;SDS011;30184;42.018;23.670;2024-02-15T13:25:54;4.05;;;1.95;;
44480;SDS011;30184;42.018;23.670;2024-02-15T13:28:24;2.85;;;1.45;;
44480;SDS011;30184;42.018;23.670;2024-02-15T13:30:54;5.53;;;2.88;;
44480;SDS011;30184;42.018;23.670;2024-02-15T13:33:23;5.50;;;2.50;;
44480;SDS011;30184;42.018;23.670;2024-02-15T13:35:58;6.55;;;3.28;;
44480;SDS011;30184;42.018;23.670;2024-02-15T13:38:27;6.07;;;2.90;;
44480;SDS011;30184;42.018;23.670;2024-02-15T13:40:57;8.98;;;3.78;;
44480;SDS011;30184;42.018;23.670;2024-02-15T13:43:30;9.98;;;4.15;;
44480;SDS011;30184;42.018;23.670;2024-02-15T13:46:00;4.30;;;2.30;;
44480;SDS011;30184;42.018;23.670;2024-02-15T13:48:29;5.32;;;3.17;;
44480;SDS011;30184;42.018;23.670;2024-02-15T13:51:01;14.45;;;4.38;;
44480;SDS011;30184;42.018;23.670;2024-02-15T13:53:31;25.75;;;9.60;;
44480;SDS011;30184;42.018;23.670;2024-02-15T13:56:00;27.52;;;10.68;;
44480;SDS011;30184;42.018;23.670;2024-02-15T13:58:30;27.00;;;5.18;;
44480;SDS011;30184;42.018;23.670;2024-02-15T14:01:00;23.25;;;6.75;;
44480;SDS011;30184;42.018;23.670;2024-02-15T14:03:32;41.13;;;12.25;;
44480;SDS011;30184;42.018;23.670;2024-02-15T14:06:03;22.20;;;7.95;;
44480;SDS011;30184;42.018;23.670;2024-02-15T14:08:33;6.32;;;2.92;;
44480;SDS011;30184;42.018;23.670;2024-02-15T14:11:03;26.20;;;8.15;;
44480;SDS011;30184;42.018;23.670;2024-02-15T14:13:33;41.88;;;12.10;;
44480;SDS011;30184;42.018;23.670;2024-02-15T14:16:03;44.17;;;19.10;;
44480;SDS011;30184;42.018;23.670;2024-02-15T14:18:35;27.60;;;9.35;;
44480;SDS011;30184;42.018;23.670;2024-02-15T14:21:07;12.55;;;5.28;;
44480;SDS011;30184;42.018;23.670;2024-02-15T14:23:38;12.65;;;4.93;;
44480;SDS011;30184;42.018;23.670;2024-02-15T14:26:07;11.77;;;6.00;;
44480;SDS011;30184;42.018;23.670;2024-02-15T14:28:37;7.85;;;4.10;;
44480;SDS011;30184;42.018;23.670;2024-02-15T14:31:10;12.15;;;4.75;;
44480;SDS011;30184;42.018;23.670;2024-02-15T14:33:57;20.35;;;8.60;;
44480;SDS011;30184;42.018;23.670;2024-02-15T14:36:29;18.27;;;7.68;;
44480;SDS011;30184;42.018;23.670;2024-02-15T14:38:58;9.40;;;4.88;;
44480;SDS011;30184;42.018;23.670;2024-02-15T14:41:27;15.13;;;5.75;;
44480;SDS011;30184;42.018;23.670;2024-02-15T14:43:58;15.20;;;5.97;;
44480;SDS011;30184;42.018;23.670;2024-02-15T14:46:28;22.80;;;8.55;;
44480;SDS011;30184;42.018;23.670;2024-02-15T14:48:57;19.77;;;6.53;;
44480;SDS011;30184;42.018;23.670;2024-02-15T14:51:29;15.43;;;6.10;;
44480;SDS011;30184;42.018;23.670;2024-02-15T14:53:59;20.17;;;7.97;;
44480;SDS011;30184;42.018;23.670;2024-02-15T14:56:29;30.02;;;13.15;;